createdAt,value
2022-12-05T00:00:54.964Z,21.31
2022-12-05T00:03:21.526Z,21.30
2022-12-05T00:05:47.848Z,21.30
2022-12-05T00:08:14.271Z,21.32
2022-12-05T00:10:40.624Z,21.29
2022-12-05T00:13:07.007Z,21.28
2022-12-05T00:15:36.433Z,21.28
2022-12-05T00:18:02.756Z,21.27
2022-12-05T00:20:29.086Z,21.27
2022-12-05T00:22:55.414Z,21.29
2022-12-05T00:25:21.749Z,21.28
2022-12-05T00:27:48.080Z,21.27
2022-12-05T00:30:14.392Z,21.29
2022-12-05T00:32:40.709Z,21.29
2022-12-05T00:35:07.045Z,21.30
2022-12-05T00:37:33.351Z,21.33
2022-12-05T00:39:59.934Z,21.38
2022-12-05T00:42:26.410Z,21.40
2022-12-05T00:44:52.744Z,21.40
2022-12-05T00:47:19.078Z,21.41
2022-12-05T00:49:45.411Z,21.41
2022-12-05T00:52:11.761Z,21.41
2022-12-05T00:54:38.739Z,21.42
2022-12-05T00:57:05.105Z,21.42
2022-12-05T00:59:31.436Z,21.41
2022-12-05T01:01:57.812Z,21.41
2022-12-05T01:04:24.678Z,21.42
2022-12-05T01:06:51.049Z,21.39
2022-12-05T01:09:17.929Z,21.39
2022-12-05T01:11:44.243Z,21.38
2022-12-05T01:14:11.124Z,21.38
2022-12-05T01:16:37.706Z,21.40
2022-12-05T01:19:05.225Z,21.36
2022-12-05T01:21:31.547Z,21.34
2022-12-05T01:23:57.861Z,21.37
2022-12-05T01:26:24.186Z,21.36
2022-12-05T01:28:50.740Z,21.34
2022-12-05T01:31:27.387Z,21.31
2022-12-05T01:33:54.153Z,21.30
2022-12-05T01:36:20.618Z,21.31
2022-12-05T01:38:46.936Z,21.32
2022-12-05T01:41:14.324Z,21.32
2022-12-05T01:43:53.296Z,21.34
2022-12-05T01:46:19.671Z,21.37
2022-12-05T01:48:46.039Z,21.40
2022-12-05T01:51:12.365Z,21.42
2022-12-05T01:53:38.700Z,21.42
2022-12-05T01:56:05.016Z,21.42
2022-12-05T01:58:32.221Z,21.40
2022-12-05T02:00:58.582Z,21.42
2022-12-05T02:03:24.938Z,21.40
2022-12-05T02:05:51.579Z,21.41
2022-12-05T02:08:17.990Z,21.40
2022-12-05T02:10:45.570Z,21.38
2022-12-05T02:13:30.872Z,21.36
2022-12-05T02:15:57.285Z,21.36
2022-12-05T02:18:29.702Z,21.37
2022-12-05T02:21:01.909Z,21.39
2022-12-05T02:23:41.537Z,21.36
2022-12-05T02:26:16.673Z,21.36
2022-12-05T02:28:51.893Z,21.38
2022-12-05T02:31:27.994Z,21.40
2022-12-05T02:34:05.655Z,21.40
2022-12-05T02:36:44.778Z,21.44
2022-12-05T02:39:18.222Z,21.44
2022-12-05T02:41:55.638Z,21.45
2022-12-05T02:44:23.340Z,21.45
2022-12-05T02:46:49.653Z,21.44
2022-12-05T02:49:17.677Z,21.45
2022-12-05T02:51:49.057Z,21.40
2022-12-05T02:54:19.007Z,21.43
2022-12-05T02:56:45.352Z,21.42
2022-12-05T02:59:11.673Z,21.44
2022-12-05T03:01:38.161Z,21.41
2022-12-05T03:04:04.666Z,21.38
2022-12-05T03:06:32.340Z,21.36
2022-12-05T03:09:02.633Z,21.34
2022-12-05T03:11:28.964Z,21.32
2022-12-05T03:13:55.651Z,21.31
2022-12-05T03:16:26.607Z,21.33
2022-12-05T03:19:00.223Z,21.32
2022-12-05T03:21:29.517Z,21.32
2022-12-05T03:23:56.509Z,21.33
2022-12-05T03:26:30.217Z,21.33
2022-12-05T03:29:11.139Z,21.37
2022-12-05T03:31:42.271Z,21.37
2022-12-05T03:34:09.162Z,21.41
2022-12-05T03:36:38.061Z,21.46
2022-12-05T03:39:10.274Z,21.46
2022-12-05T03:41:48.991Z,21.49
2022-12-05T03:44:18.216Z,21.48
2022-12-05T03:46:46.642Z,21.48
2022-12-05T03:49:22.055Z,21.49
2022-12-05T03:51:54.064Z,21.50
2022-12-05T03:54:40.562Z,21.51
2022-12-05T03:57:23.153Z,21.53
2022-12-05T03:59:56.761Z,21.55
2022-12-05T04:02:30.841Z,21.54
2022-12-05T04:05:07.407Z,21.56
2022-12-05T04:07:34.256Z,21.56
2022-12-05T04:10:01.871Z,21.56
2022-12-05T04:12:28.600Z,21.56
2022-12-05T04:14:59.240Z,21.54
2022-12-05T04:17:46.041Z,21.51
2022-12-05T04:20:40.305Z,21.54
2022-12-05T04:23:06.761Z,21.54
2022-12-05T04:25:36.359Z,21.54
2022-12-05T04:28:08.581Z,21.53
2022-12-05T04:30:43.263Z,21.55
2022-12-05T04:33:21.381Z,21.54
2022-12-05T04:35:54.546Z,21.54
2022-12-05T04:38:23.301Z,21.53
2022-12-05T04:40:52.207Z,21.52
2022-12-05T04:43:18.632Z,21.51
2022-12-05T04:45:44.951Z,21.52
2022-12-05T04:48:12.220Z,21.53
2022-12-05T04:50:38.552Z,21.55
2022-12-05T04:53:04.942Z,21.56
2022-12-05T04:55:31.483Z,21.56
2022-12-05T04:58:00.467Z,21.58
2022-12-05T05:00:27.701Z,21.61
2022-12-05T05:03:12.987Z,21.61
2022-12-05T05:05:39.367Z,21.60
2022-12-05T05:08:05.781Z,21.62
2022-12-05T05:10:39.640Z,21.61
2022-12-05T05:13:05.952Z,21.62
2022-12-05T05:15:32.266Z,21.62
2022-12-05T05:17:58.617Z,21.61
2022-12-05T05:20:24.970Z,21.60
2022-12-05T05:22:51.547Z,21.59
2022-12-05T05:25:18.162Z,21.60
2022-12-05T05:27:47.404Z,21.59
2022-12-05T05:30:13.725Z,21.59
2022-12-05T05:32:40.037Z,21.60
2022-12-05T05:35:06.522Z,21.60
2022-12-05T05:37:33.088Z,21.59
2022-12-05T05:39:59.725Z,21.58
2022-12-05T05:42:26.389Z,21.58
2022-12-05T05:44:52.708Z,21.58
2022-12-05T05:47:19.020Z,21.58
2022-12-05T05:49:45.329Z,21.57
2022-12-05T05:52:11.666Z,21.60
2022-12-05T05:54:37.992Z,21.61
2022-12-05T05:57:04.333Z,21.60
2022-12-05T05:59:30.654Z,21.57
2022-12-05T06:01:56.989Z,21.56
2022-12-05T06:04:23.391Z,21.60
2022-12-05T06:06:49.732Z,21.67
2022-12-05T06:09:16.053Z,21.70
2022-12-05T06:11:42.385Z,21.72
2022-12-05T06:14:08.688Z,21.69
2022-12-05T06:16:35.065Z,21.81
2022-12-05T06:19:01.414Z,21.79
2022-12-05T06:21:27.826Z,21.98
2022-12-05T06:23:54.209Z,22.15
2022-12-05T06:26:20.691Z,22.25
2022-12-05T06:28:47.019Z,22.38
2022-12-05T06:31:17.150Z,22.32
2022-12-05T06:33:43.585Z,22.30
2022-12-05T06:36:10.686Z,22.31
2022-12-05T06:38:41.853Z,22.33
2022-12-05T06:41:09.794Z,22.23
2022-12-05T06:43:36.149Z,22.15
2022-12-05T06:46:06.090Z,22.11
2022-12-05T06:48:32.480Z,22.06
2022-12-05T06:50:58.796Z,22.09
2022-12-05T06:54:08.724Z,21.94
2022-12-05T06:56:35.081Z,22.09
2022-12-05T06:59:01.412Z,22.13
2022-12-05T07:01:40.969Z,22.14
2022-12-05T07:04:08.596Z,22.16
2022-12-05T07:06:35.111Z,22.10
2022-12-05T07:09:01.423Z,21.95
2022-12-05T07:11:27.853Z,21.99
2022-12-05T07:13:54.225Z,22.04
2022-12-05T07:16:20.656Z,20.66
2022-12-05T07:18:47.050Z,21.30
2022-12-05T07:21:14.512Z,21.44
2022-12-05T07:23:41.714Z,21.37
2022-12-05T07:26:08.536Z,21.41
2022-12-05T07:28:34.880Z,21.40
2022-12-05T07:31:01.902Z,21.42
2022-12-05T07:33:28.422Z,21.37
2022-12-05T07:35:58.875Z,21.31
2022-12-05T07:38:25.209Z,21.30
2022-12-05T07:40:51.547Z,21.51
2022-12-05T07:43:17.859Z,21.63
2022-12-05T07:45:44.256Z,21.64
2022-12-05T07:48:13.350Z,21.66
2022-12-05T07:50:43.333Z,21.58
2022-12-05T07:53:09.790Z,21.61
2022-12-05T07:55:37.367Z,21.69
2022-12-05T07:58:03.704Z,21.56
2022-12-05T08:00:30.021Z,21.47
2022-12-05T08:02:56.479Z,21.42
2022-12-05T08:05:22.859Z,21.51
2022-12-05T08:07:49.263Z,21.73
2022-12-05T08:10:15.600Z,21.93
2022-12-05T08:12:41.938Z,22.04
2022-12-05T08:15:08.640Z,22.06
2022-12-05T08:17:34.969Z,22.05
2022-12-05T08:20:02.270Z,22.02
2022-12-05T08:22:28.603Z,22.17
2022-12-05T08:24:56.500Z,22.10
2022-12-05T08:27:22.918Z,22.09
2022-12-05T08:29:49.244Z,22.44
2022-12-05T08:32:15.870Z,22.40
2022-12-05T08:34:42.365Z,22.35
2022-12-05T08:37:08.716Z,22.31
2022-12-05T08:39:38.615Z,21.93
2022-12-05T08:42:05.306Z,21.74
2022-12-05T08:44:31.612Z,21.72
2022-12-05T08:46:57.941Z,21.69
2022-12-05T08:49:24.261Z,21.69
2022-12-05T08:51:50.584Z,21.67
2022-12-05T08:54:16.930Z,21.67
2022-12-05T08:56:43.258Z,21.69
2022-12-05T08:59:09.737Z,21.65
2022-12-05T09:01:38.457Z,21.65
2022-12-05T09:04:05.502Z,21.62
2022-12-05T09:06:31.844Z,21.66
2022-12-05T09:09:02.610Z,21.61
2022-12-05T09:11:29.939Z,21.63
2022-12-05T09:13:57.602Z,21.65
2022-12-05T09:16:24.730Z,21.66
2022-12-05T09:18:51.247Z,21.73
2022-12-05T09:21:18.285Z,21.89
2022-12-05T09:23:44.608Z,21.96
2022-12-05T09:26:11.836Z,22.09
2022-12-05T09:28:38.162Z,22.26
2022-12-05T09:31:08.443Z,22.17
2022-12-05T09:33:35.830Z,22.15
2022-12-05T09:36:02.808Z,21.97
2022-12-05T09:38:29.147Z,21.81
2022-12-05T09:41:07.753Z,21.75
2022-12-05T09:43:37.057Z,21.75
2022-12-05T09:46:04.888Z,21.87
2022-12-05T09:48:31.252Z,21.98
2022-12-05T09:51:00.324Z,21.81
2022-12-05T09:53:33.139Z,21.77
2022-12-05T09:56:02.210Z,21.67
2022-12-05T09:58:30.159Z,21.68
2022-12-05T10:01:01.047Z,21.82
2022-12-05T10:03:38.090Z,21.75
2022-12-05T10:06:15.756Z,21.79
2022-12-05T10:09:00.966Z,21.92
2022-12-05T10:11:34.997Z,21.99
2022-12-05T10:14:17.994Z,21.83
2022-12-05T10:16:48.420Z,21.86
2022-12-05T10:19:16.039Z,21.88
2022-12-05T10:21:50.825Z,21.92
2022-12-05T10:24:18.552Z,21.93
2022-12-05T10:26:45.856Z,21.90
2022-12-05T10:29:13.060Z,21.91
2022-12-05T10:31:39.583Z,21.83
2022-12-05T10:34:17.467Z,21.99
2022-12-05T10:37:03.976Z,21.96
2022-12-05T10:39:30.296Z,22.00
2022-12-05T10:41:56.730Z,21.95
2022-12-05T10:44:23.049Z,22.08
2022-12-05T10:46:49.410Z,21.91
2022-12-05T10:49:15.786Z,21.95
2022-12-05T10:51:42.370Z,22.05
2022-12-05T10:54:21.307Z,21.98
2022-12-05T10:56:48.579Z,21.88
2022-12-05T10:59:15.934Z,21.81
2022-12-05T11:01:44.495Z,21.81
2022-12-05T11:04:20.973Z,21.75
2022-12-05T11:06:50.927Z,21.77
2022-12-05T11:09:18.134Z,21.78
2022-12-05T11:11:45.853Z,21.71
2022-12-05T11:14:22.252Z,21.87
2022-12-05T11:16:52.282Z,21.95
2022-12-05T11:19:21.338Z,21.97
2022-12-05T11:21:47.925Z,21.99
2022-12-05T11:24:33.574Z,22.18
2022-12-05T11:27:00.684Z,22.30
2022-12-05T11:29:30.075Z,22.34
2022-12-05T11:31:56.413Z,22.35
2022-12-05T11:34:46.041Z,22.35
2022-12-05T11:37:13.328Z,22.35
2022-12-05T11:39:39.654Z,22.44
2022-12-05T11:42:27.462Z,22.43
2022-12-05T11:44:59.995Z,22.48
2022-12-05T11:47:45.308Z,22.50
2022-12-05T11:50:11.549Z,22.53
2022-12-05T11:52:47.974Z,22.50
2022-12-05T11:55:17.190Z,22.56
2022-12-05T11:57:52.253Z,22.56
2022-12-05T12:00:22.277Z,22.56
2022-12-05T12:03:07.234Z,22.61
2022-12-05T12:05:38.440Z,22.71
2022-12-05T12:08:17.574Z,22.72
2022-12-05T12:11:05.227Z,22.77
2022-12-05T12:13:31.493Z,22.91
2022-12-05T12:16:12.359Z,22.97
2022-12-05T12:18:52.983Z,22.82
2022-12-05T12:21:36.973Z,22.78
2022-12-05T12:24:23.587Z,22.87
2022-12-05T12:27:08.513Z,22.97
2022-12-05T12:29:47.004Z,23.02
2022-12-05T12:32:16.520Z,22.91
2022-12-05T12:34:57.071Z,22.94
2022-12-05T12:37:35.945Z,22.96
2022-12-05T12:40:16.305Z,22.93
2022-12-05T12:42:56.743Z,22.85
2022-12-05T12:45:41.081Z,22.86
2022-12-05T12:48:19.325Z,22.97
2022-12-05T12:50:45.654Z,23.00
2022-12-05T12:53:25.865Z,22.93
2022-12-05T12:56:10.625Z,22.70
2022-12-05T12:58:45.283Z,22.74
2022-12-05T13:01:32.517Z,22.54
2022-12-05T13:04:02.846Z,22.59
2022-12-05T13:06:30.562Z,22.70
2022-12-05T13:08:58.291Z,22.51
2022-12-05T13:11:29.097Z,22.51
2022-12-05T13:13:56.729Z,22.61
2022-12-05T13:16:27.101Z,22.61
2022-12-05T13:18:54.460Z,22.61
2022-12-05T13:21:20.769Z,22.72
2022-12-05T13:23:48.232Z,22.65
2022-12-05T13:26:14.540Z,22.77
2022-12-05T13:28:47.738Z,22.71
2022-12-05T13:31:16.970Z,22.79
2022-12-05T13:33:44.139Z,22.91
2022-12-05T13:36:39.222Z,22.95
2022-12-05T13:39:25.115Z,22.93
2022-12-05T13:42:11.151Z,22.90
2022-12-05T13:44:56.841Z,22.92
2022-12-05T13:47:28.333Z,22.98
2022-12-05T13:50:01.371Z,22.97
2022-12-05T13:52:29.071Z,22.58
2022-12-05T13:55:01.397Z,22.41
2022-12-05T13:57:40.153Z,22.36
2022-12-05T14:00:10.025Z,22.34
2022-12-05T14:02:42.345Z,22.28
2022-12-05T14:05:14.596Z,22.26
2022-12-05T14:07:44.633Z,22.24
2022-12-05T14:10:12.067Z,22.19
2022-12-05T14:12:54.558Z,22.07
2022-12-05T14:15:24.613Z,22.51
2022-12-05T14:17:51.822Z,22.69
2022-12-05T14:20:26.096Z,22.78
2022-12-05T14:23:11.433Z,22.83
2022-12-05T14:25:53.140Z,22.88
2022-12-05T14:28:38.489Z,22.92
2022-12-05T14:31:11.260Z,23.10
2022-12-05T14:33:37.609Z,23.24
2022-12-05T14:36:04.956Z,23.27
2022-12-05T14:38:31.547Z,23.25
2022-12-05T14:41:06.139Z,23.07
2022-12-05T14:43:33.136Z,23.04
2022-12-05T14:46:00.273Z,23.08
2022-12-05T14:48:27.945Z,23.07
2022-12-05T14:50:55.020Z,23.03
2022-12-05T14:53:21.478Z,23.09
2022-12-05T14:55:48.406Z,23.06
2022-12-05T14:58:18.366Z,23.04
2022-12-05T15:00:48.057Z,23.06
2022-12-05T15:03:19.189Z,23.07
2022-12-05T15:05:45.493Z,23.14
2022-12-05T15:08:12.829Z,23.25
2022-12-05T15:10:39.189Z,23.36
2022-12-05T15:13:17.571Z,23.42
2022-12-05T15:15:44.861Z,23.39
2022-12-05T15:18:20.183Z,23.36
2022-12-05T15:20:49.602Z,23.37
2022-12-05T15:23:34.551Z,23.29
2022-12-05T15:26:17.657Z,23.23
2022-12-05T15:29:04.332Z,23.21
2022-12-05T15:31:31.445Z,23.18
2022-12-05T15:33:59.054Z,23.19
2022-12-05T15:36:26.523Z,23.18
2022-12-05T15:38:53.938Z,23.22
2022-12-05T15:41:20.277Z,23.13
2022-12-05T15:43:56.116Z,23.11
2022-12-05T15:46:27.449Z,23.24
2022-12-05T15:48:54.631Z,23.28
2022-12-05T15:51:30.428Z,23.25
2022-12-05T15:53:59.105Z,23.29
2022-12-05T15:56:29.845Z,23.25
2022-12-05T15:59:03.169Z,23.25
2022-12-05T16:01:29.903Z,23.21
2022-12-05T16:03:59.479Z,23.37
2022-12-05T16:06:30.288Z,23.44
2022-12-05T16:08:56.996Z,23.49
2022-12-05T16:11:23.312Z,23.40
2022-12-05T16:13:50.136Z,23.29
2022-12-05T16:16:20.128Z,23.25
2022-12-05T16:18:50.108Z,23.23
2022-12-05T16:21:31.912Z,23.23
2022-12-05T16:24:01.755Z,23.19
2022-12-05T16:26:28.094Z,23.19
2022-12-05T16:29:01.339Z,23.21
2022-12-05T16:31:28.104Z,23.17
2022-12-05T16:34:04.523Z,23.20
2022-12-05T16:36:30.841Z,23.20
2022-12-05T16:39:06.649Z,23.19
2022-12-05T16:41:36.526Z,23.27
2022-12-05T16:44:09.417Z,23.31
2022-12-05T16:46:41.859Z,23.27
2022-12-05T16:49:15.615Z,23.25
2022-12-05T16:51:42.342Z,23.24
2022-12-05T16:54:08.701Z,23.26
2022-12-05T16:56:35.026Z,23.29
2022-12-05T16:59:04.559Z,23.28
2022-12-05T17:01:35.579Z,23.20
2022-12-05T17:04:04.996Z,23.25
2022-12-05T17:06:31.377Z,23.24
2022-12-05T17:08:57.716Z,23.26
2022-12-05T17:11:24.993Z,23.26
2022-12-05T17:13:51.449Z,23.28
2022-12-05T17:16:18.243Z,23.28
2022-12-05T17:18:44.879Z,23.27
2022-12-05T17:21:14.262Z,23.27
2022-12-05T17:23:46.007Z,23.28
2022-12-05T17:26:14.277Z,23.29
2022-12-05T17:28:40.659Z,23.29
2022-12-05T17:31:07.085Z,23.26
2022-12-05T17:33:33.457Z,23.26
2022-12-05T17:35:59.999Z,23.11
2022-12-05T17:38:26.345Z,22.71
2022-12-05T17:40:52.650Z,22.51
2022-12-05T17:43:24.688Z,22.49
2022-12-05T17:45:51.505Z,22.53
2022-12-05T17:48:17.847Z,22.56
2022-12-05T17:50:45.099Z,22.46
2022-12-05T17:53:39.851Z,22.57
2022-12-05T17:56:06.173Z,22.55
2022-12-05T17:58:32.854Z,22.43
2022-12-05T18:00:59.243Z,22.58
2022-12-05T18:03:25.641Z,22.64
2022-12-05T18:05:51.978Z,22.52
2022-12-05T18:08:18.351Z,22.59
2022-12-05T18:10:44.947Z,22.68
2022-12-05T18:13:11.267Z,22.64
2022-12-05T18:15:42.517Z,22.58
2022-12-05T18:18:11.581Z,22.48
2022-12-05T18:20:37.906Z,22.38
2022-12-05T18:23:04.440Z,21.84
2022-12-05T18:25:31.946Z,22.06
2022-12-05T18:27:58.510Z,22.18
2022-12-05T18:30:24.830Z,22.24
2022-12-05T18:32:51.161Z,22.26
2022-12-05T18:35:17.482Z,22.24
2022-12-05T18:37:44.021Z,22.25
2022-12-05T18:40:10.601Z,22.20
2022-12-05T18:42:36.946Z,22.17
2022-12-05T18:45:03.289Z,22.15
2022-12-05T18:47:29.684Z,22.14
2022-12-05T18:49:55.992Z,22.13
2022-12-05T18:52:22.428Z,22.11
2022-12-05T18:55:03.057Z,22.12
2022-12-05T18:57:36.282Z,22.12
2022-12-05T19:00:03.783Z,21.44
2022-12-05T19:02:30.359Z,21.77
2022-12-05T19:04:57.022Z,21.75
2022-12-05T19:07:23.605Z,21.70
2022-12-05T19:09:49.932Z,21.62
2022-12-05T19:12:16.265Z,21.52
2022-12-05T19:14:42.586Z,21.48
2022-12-05T19:17:08.950Z,21.33
2022-12-05T19:19:35.304Z,20.42
2022-12-05T19:22:02.088Z,20.98
2022-12-05T19:24:28.831Z,21.46
2022-12-05T19:26:55.183Z,21.67
2022-12-05T19:29:21.692Z,21.42
2022-12-05T19:31:48.079Z,20.46
2022-12-05T19:34:14.478Z,20.81
2022-12-05T19:36:44.179Z,21.27
2022-12-05T19:39:11.299Z,21.54
2022-12-05T19:41:37.708Z,21.69
2022-12-05T19:44:04.235Z,21.73
2022-12-05T19:46:30.718Z,21.74
2022-12-05T19:48:57.513Z,21.78
2022-12-05T19:51:23.847Z,21.78
2022-12-05T19:53:50.188Z,21.84
2022-12-05T19:56:17.277Z,21.80
2022-12-05T19:58:43.847Z,21.86
2022-12-05T20:01:10.139Z,21.87
2022-12-05T20:03:36.537Z,21.82
2022-12-05T20:06:02.908Z,21.82
2022-12-05T20:08:29.235Z,21.81
2022-12-05T20:10:55.609Z,21.69
2022-12-05T20:13:45.988Z,21.79
2022-12-05T20:16:08.810Z,21.73
2022-12-05T20:18:37.468Z,21.62
2022-12-05T20:21:03.968Z,21.72
2022-12-05T20:23:30.393Z,21.75
2022-12-05T20:26:00.682Z,21.77
2022-12-05T20:28:27.025Z,21.77
2022-12-05T20:30:53.448Z,21.75
2022-12-05T20:33:19.964Z,21.74
2022-12-05T20:35:46.284Z,21.74
2022-12-05T20:38:12.644Z,21.73
2022-12-05T20:40:38.969Z,21.74
2022-12-05T20:43:05.311Z,21.74
2022-12-05T20:45:31.661Z,21.73
2022-12-05T20:47:58.041Z,21.73
2022-12-05T20:50:24.367Z,21.72
2022-12-05T20:52:50.705Z,21.70
2022-12-05T20:55:17.028Z,21.70
2022-12-05T20:57:43.368Z,21.69
2022-12-05T21:00:10.847Z,21.68
2022-12-05T21:02:37.921Z,21.67
2022-12-05T21:05:04.303Z,21.68
2022-12-05T21:07:30.694Z,21.68
2022-12-05T21:09:57.465Z,21.69
2022-12-05T21:12:24.924Z,21.69
2022-12-05T21:14:52.492Z,21.70
2022-12-05T21:17:18.813Z,21.69
2022-12-05T21:19:45.689Z,21.69
2022-12-05T21:22:12.013Z,21.71
2022-12-05T21:24:38.338Z,21.70
2022-12-05T21:27:04.647Z,21.71
2022-12-05T21:29:30.969Z,21.71
2022-12-05T21:31:57.281Z,21.70
2022-12-05T21:34:23.615Z,21.71
2022-12-05T21:36:51.469Z,21.72
2022-12-05T21:39:17.803Z,21.71
2022-12-05T21:41:44.138Z,21.70
2022-12-05T21:44:10.504Z,21.67
2022-12-05T21:46:36.934Z,21.67
2022-12-05T21:49:03.363Z,21.65
2022-12-05T21:51:29.673Z,21.62
2022-12-05T21:53:55.998Z,21.62
2022-12-05T21:56:25.505Z,21.61
2022-12-05T21:58:52.115Z,21.61
2022-12-05T22:01:22.698Z,21.60
2022-12-05T22:03:52.666Z,21.60
2022-12-05T22:06:18.985Z,21.58
2022-12-05T22:08:45.304Z,21.56
2022-12-05T22:11:15.191Z,21.57
2022-12-05T22:13:41.737Z,21.56
2022-12-05T22:16:08.308Z,21.56
2022-12-05T22:18:34.902Z,21.57
2022-12-05T22:21:05.031Z,21.55
2022-12-05T22:23:31.728Z,21.53
2022-12-05T22:26:02.001Z,21.52
2022-12-05T22:28:28.456Z,21.50
2022-12-05T22:30:55.638Z,21.50
2022-12-05T22:33:22.199Z,21.48
2022-12-05T22:35:52.498Z,21.47
2022-12-05T22:38:18.817Z,21.47
2022-12-05T22:40:45.217Z,21.47
2022-12-05T22:43:11.571Z,21.45
2022-12-05T22:45:37.917Z,21.45
2022-12-05T22:48:04.324Z,21.44
2022-12-05T22:50:30.649Z,21.43
2022-12-05T22:52:56.972Z,21.42
2022-12-05T22:55:23.293Z,21.41
2022-12-05T22:57:49.625Z,21.40
2022-12-05T23:00:16.190Z,21.39
2022-12-05T23:02:42.571Z,21.38
2022-12-05T23:05:08.912Z,21.39
2022-12-05T23:07:35.262Z,21.38
2022-12-05T23:10:02.015Z,21.38
2022-12-05T23:12:28.483Z,21.37
2022-12-05T23:14:54.790Z,21.36
2022-12-05T23:17:21.129Z,21.33
2022-12-05T23:19:47.475Z,21.33
2022-12-05T23:22:13.802Z,21.34
2022-12-05T23:24:40.108Z,21.32
2022-12-05T23:27:06.408Z,21.31
2022-12-05T23:29:32.734Z,21.31
2022-12-05T23:31:59.120Z,21.30
2022-12-05T23:34:25.547Z,21.30
2022-12-05T23:36:51.872Z,21.29
2022-12-05T23:39:18.184Z,21.28
2022-12-05T23:41:45.056Z,21.27
2022-12-05T23:44:11.383Z,21.26
2022-12-05T23:46:37.818Z,21.26
2022-12-05T23:49:04.158Z,21.26
2022-12-05T23:51:30.490Z,21.25
2022-12-05T23:53:57.641Z,21.24
2022-12-05T23:56:24.837Z,21.24
2022-12-05T23:58:51.222Z,21.24
